Burlington, NJ (08016)

12:20 PM EDT on March 27, 2015 (GMT -0400)
The Hutte | | Change Station
CLOSE
Current Station
Personal Weather Station
Location: Burlington, NJ
Elevation: 28 ft
Nearby Weather Stations

Elev 28 ft 40.08 °N, 74.82 °W | Updated 6 seconds ago

Overcast
Overcast
43.4 °F
Feels Like 43 °F
N
0.0
Wind Variable Wind from NW
Gusts 8.0 mph

Today
High -- | Low -- °F
--% Chance of Precip.
Yesterday
High -- | Low -- °F
Precip. -- in
6:51 AM 7:18 PM
First Quarter, 54% visible
Pressure 29.76 in
Visibility 7.0 miles
Clouds Mostly Cloudy 3700 ft
Overcast 4700 ft
Windchill 43 °F
Dew Point 37 °F
Humidity 79%
Rainfall 0.36 in
Snow Depth Not available.
UV 2 out of 12
Pollen 5.40 out of 12
Air Quality Not available.
Flu Activity Not available.
METAR KVAY 271554Z AUTO 36007KT 7SM -RA BKN037 OVC047 06/02 A2976 RMK AO2 RAE12B46 SLP078 P0000 T00560022

More Conditions Fewer Conditions

Pressure 29.76 in
Visibility 7.0 miles
Clouds Mostly Cloudy 3700 ft
Overcast 4700 ft
Windchill 43 °F
Dew Point 37 °F
Humidity 79%
Rainfall 0.36 in
Snow Depth Not available.
UV 2 out of 12
Pollen 5.40 out of 12
Air Quality Not available.
Flu Activity Not available.
METAR KVAY 271554Z AUTO 36007KT 7SM -RA BKN037 OVC047 06/02 A2976 RMK AO2 RAE12B46 SLP078 P0000 T00560022

More Conditions Fewer Conditions

10-Day Weather Forecast

Almanac

Astronomy

Mar. 27, 2015 Rise Set
Actual Time
Civil Twilight
Nautical Twilight
Astronomical Twilight
Moon
Length of Visible Light
Length of Day
Tomorrow will be .
, % of the Moon is Illuminated

Today's Extremes

State Highs State Lows

Community

WunderPhotos

Upload Photos

1,808,770 photos uploaded!

WunderBlogs® & News

Nearby

Air Quality

  Air Quality AQ Index Pollutant
Not available.

Snow Depth

Station Depth Elevation

Earthquake Activity

City Distance Mag. Time & Date
Minimum magnitude displayed is 2.5.

Coastal Water Temperatures

Place Temperature

Stations

Nearby Weather Stations

Station Location Temp. Windchill Dew Point Humidity Wind Precip. Elev Updated Type